createdAt,value
2018-08-08T00:00:52.445Z,21.87
2018-08-08T00:03:21.840Z,23.53
2018-08-08T00:05:51.503Z,21.90
2018-08-08T00:08:22.079Z,25.03
2018-08-08T00:10:51.780Z,21.20
2018-08-08T00:13:21.382Z,20.00
2018-08-08T00:15:50.796Z,20.87
2018-08-08T00:18:20.463Z,22.30
2018-08-08T00:20:50.030Z,20.93
2018-08-08T00:23:19.581Z,21.10
2018-08-08T00:25:49.097Z,22.87
2018-08-08T00:28:18.556Z,21.93
2018-08-08T00:30:48.050Z,22.97
2018-08-08T00:33:17.543Z,22.43
2018-08-08T00:35:47.038Z,24.30
2018-08-08T00:38:16.812Z,25.17
2018-08-08T00:40:46.479Z,26.43
2018-08-08T00:43:16.203Z,28.50
2018-08-08T00:45:45.714Z,25.27
2018-08-08T00:48:15.153Z,26.00
2018-08-08T00:50:44.782Z,25.47
2018-08-08T00:53:14.314Z,25.07
2018-08-08T00:55:43.813Z,25.07
2018-08-08T00:58:13.278Z,24.20
2018-08-08T01:00:42.722Z,24.57
2018-08-08T01:03:12.397Z,25.43
2018-08-08T01:05:41.961Z,24.70
2018-08-08T01:08:11.452Z,25.60
2018-08-08T01:10:41.281Z,24.80
2018-08-08T01:13:10.987Z,23.17
2018-08-08T01:15:40.678Z,24.27
2018-08-08T01:18:10.232Z,24.03
2018-08-08T01:20:39.799Z,23.60
2018-08-08T01:23:09.394Z,24.40
2018-08-08T01:25:39.149Z,23.77
2018-08-08T01:28:10.395Z,23.00
2018-08-08T01:30:40.156Z,23.80
2018-08-08T01:33:09.974Z,23.60
2018-08-08T01:35:39.685Z,23.97
2018-08-08T01:38:09.110Z,24.27
2018-08-08T01:40:38.916Z,24.03
2018-08-08T01:43:08.760Z,23.63
2018-08-08T01:45:38.304Z,24.70
2018-08-08T01:48:08.088Z,24.90
2018-08-08T01:50:38.508Z,24.10
2018-08-08T01:53:08.303Z,23.50
2018-08-08T01:55:37.802Z,24.40
2018-08-08T01:58:07.418Z,24.73
2018-08-08T02:00:38.189Z,25.13
2018-08-08T02:03:07.923Z,25.07
2018-08-08T02:05:37.534Z,23.70
2018-08-08T02:08:07.219Z,23.03
2018-08-08T02:10:36.870Z,24.20
2018-08-08T02:13:06.391Z,22.77
2018-08-08T02:15:36.172Z,23.07
2018-08-08T02:18:06.022Z,22.93
2018-08-08T02:20:35.496Z,24.10
2018-08-08T02:23:05.223Z,24.17
2018-08-08T02:25:35.046Z,23.93
2018-08-08T02:28:05.199Z,23.63
2018-08-08T02:30:34.894Z,23.93
2018-08-08T02:33:04.627Z,24.73
2018-08-08T02:35:34.008Z,23.50
2018-08-08T02:38:03.628Z,24.93
2018-08-08T02:40:33.324Z,24.37
2018-08-08T02:43:02.905Z,24.47
2018-08-08T02:45:32.434Z,23.77
2018-08-08T02:48:02.267Z,24.17
2018-08-08T02:50:32.064Z,24.10
2018-08-08T02:53:01.529Z,24.40
2018-08-08T02:55:30.924Z,25.37
2018-08-08T02:58:00.421Z,24.80
2018-08-08T03:00:29.951Z,25.50
2018-08-08T03:02:59.490Z,24.63
2018-08-08T03:05:29.078Z,24.83
2018-08-08T03:07:58.689Z,23.27
2018-08-08T03:10:28.206Z,25.03
2018-08-08T03:12:57.611Z,23.43
2018-08-08T03:15:27.512Z,23.53
2018-08-08T03:17:56.919Z,24.20
2018-08-08T03:20:26.674Z,24.47
2018-08-08T03:22:56.201Z,25.23
2018-08-08T03:25:25.607Z,26.10
2018-08-08T03:27:55.197Z,25.43
2018-08-08T03:30:24.749Z,24.87
2018-08-08T03:32:54.241Z,24.77
2018-08-08T03:35:23.619Z,25.57
2018-08-08T03:37:53.009Z,25.10
2018-08-08T03:40:22.576Z,25.57
2018-08-08T03:42:52.111Z,24.57
2018-08-08T03:45:21.812Z,25.30
2018-08-08T03:47:51.194Z,26.53
2018-08-08T03:50:20.645Z,24.97
2018-08-08T03:52:50.086Z,26.00
2018-08-08T03:55:19.759Z,25.63
2018-08-08T03:57:49.408Z,24.97
2018-08-08T04:00:20.220Z,24.03
2018-08-08T04:02:50.322Z,24.70
2018-08-08T04:05:19.804Z,27.33
2018-08-08T04:07:49.325Z,27.50
2018-08-08T04:10:19.482Z,44.87
2018-08-08T04:12:48.924Z,41.23
2018-08-08T04:15:19.425Z,48.37
2018-08-08T04:17:48.991Z,54.97
2018-08-08T04:20:18.417Z,46.50
2018-08-08T04:22:47.973Z,35.33
2018-08-08T04:25:18.034Z,32.80
2018-08-08T04:27:47.671Z,31.87
2018-08-08T04:30:20.148Z,32.60
2018-08-08T04:32:49.992Z,33.40
2018-08-08T04:35:19.623Z,34.73
2018-08-08T04:37:49.169Z,33.00
2018-08-08T04:40:20.320Z,34.80
2018-08-08T04:42:50.250Z,30.70
2018-08-08T04:45:20.328Z,30.00
2018-08-08T04:47:50.038Z,30.50
2018-08-08T04:50:19.465Z,31.23
2018-08-08T04:52:48.987Z,28.70
2018-08-08T04:55:18.727Z,25.80
2018-08-08T04:57:48.317Z,24.17
2018-08-08T05:00:19.125Z,22.97
2018-08-08T05:02:48.734Z,20.23
2018-08-08T05:05:18.151Z,20.57
2018-08-08T05:07:47.597Z,19.43
2018-08-08T05:10:17.254Z,18.83
2018-08-08T05:12:46.713Z,19.70
2018-08-08T05:15:17.522Z,20.87
2018-08-08T05:17:47.979Z,20.27
2018-08-08T05:20:17.772Z,20.67
2018-08-08T05:22:48.456Z,21.40
2018-08-08T05:25:18.056Z,20.47
2018-08-08T05:27:47.813Z,20.07
2018-08-08T05:30:19.733Z,20.10
2018-08-08T05:32:49.480Z,20.77
2018-08-08T05:35:20.287Z,24.83
2018-08-08T05:37:50.048Z,20.80
2018-08-08T05:40:22.544Z,21.73
2018-08-08T05:42:53.144Z,20.07
2018-08-08T05:45:23.444Z,20.33
2018-08-08T05:47:54.665Z,19.37
2018-08-08T05:50:24.368Z,19.07
2018-08-08T05:52:54.052Z,18.67
2018-08-08T05:55:23.806Z,19.23
2018-08-08T05:57:53.407Z,19.60
2018-08-08T06:00:27.186Z,18.70
2018-08-08T06:02:57.009Z,18.83
2018-08-08T06:05:27.075Z,18.17
2018-08-08T06:07:57.050Z,17.60
2018-08-08T06:10:26.812Z,17.33
2018-08-08T06:12:56.239Z,17.80
2018-08-08T06:15:25.847Z,16.97
2018-08-08T06:17:55.595Z,18.07
2018-08-08T06:20:25.232Z,16.90
2018-08-08T06:22:54.707Z,16.13
2018-08-08T06:25:24.265Z,17.33
2018-08-08T06:27:53.667Z,16.80
2018-08-08T06:30:26.677Z,16.83
2018-08-08T06:32:57.160Z,15.70
2018-08-08T06:35:28.378Z,17.43
2018-08-08T06:37:58.404Z,17.53
2018-08-08T06:40:28.226Z,16.20
2018-08-08T06:42:58.275Z,18.77
2018-08-08T06:45:28.418Z,16.93
2018-08-08T06:47:58.123Z,16.37
2018-08-08T06:50:27.558Z,16.53
2018-08-08T06:52:57.076Z,15.90
2018-08-08T06:55:26.578Z,16.40
2018-08-08T06:57:56.032Z,16.80
2018-08-08T07:00:27.711Z,16.07
2018-08-08T07:02:57.906Z,16.20
2018-08-08T07:05:27.792Z,16.67
2018-08-08T07:07:58.092Z,16.10
2018-08-08T07:10:28.410Z,16.50
2018-08-08T07:12:58.048Z,15.63
2018-08-08T07:15:27.628Z,15.37
2018-08-08T07:17:57.384Z,15.57
2018-08-08T07:20:26.946Z,15.57
2018-08-08T07:22:56.538Z,16.07
2018-08-08T07:25:26.225Z,16.10
2018-08-08T07:27:55.799Z,15.93
2018-08-08T07:30:25.475Z,14.57
2018-08-08T07:32:55.070Z,16.90
2018-08-08T07:35:24.729Z,13.80
2018-08-08T07:37:54.287Z,14.03
2018-08-08T07:40:23.633Z,14.67
2018-08-08T07:42:53.838Z,15.27
2018-08-08T07:45:26.528Z,15.07
2018-08-08T07:47:56.058Z,15.33
2018-08-08T07:50:25.479Z,14.57
2018-08-08T07:52:54.962Z,15.17
2018-08-08T07:55:25.070Z,14.77
2018-08-08T07:57:54.837Z,14.30
2018-08-08T08:00:38.829Z,14.77
2018-08-08T08:03:08.195Z,13.07
2018-08-08T08:05:37.775Z,14.60
2018-08-08T08:08:07.130Z,14.80
2018-08-08T08:10:36.581Z,15.27
2018-08-08T08:13:06.157Z,13.53
2018-08-08T08:15:35.626Z,14.03
2018-08-08T08:18:05.280Z,13.53
2018-08-08T08:20:34.621Z,13.70
2018-08-08T08:23:04.654Z,13.30
2018-08-08T08:25:34.290Z,13.77
2018-08-08T08:28:03.733Z,13.87
2018-08-08T08:30:33.212Z,12.67
2018-08-08T08:33:02.741Z,12.90
2018-08-08T08:35:32.366Z,13.10
2018-08-08T08:38:01.837Z,13.63
2018-08-08T08:40:31.406Z,13.63
2018-08-08T08:43:00.759Z,13.63
2018-08-08T08:45:30.232Z,13.03
2018-08-08T08:47:59.656Z,13.93
2018-08-08T08:50:29.163Z,13.13
2018-08-08T08:52:58.788Z,13.13
2018-08-08T08:55:28.372Z,12.67
2018-08-08T08:57:57.985Z,13.17
2018-08-08T09:00:27.438Z,13.83
2018-08-08T09:02:57.045Z,12.40
2018-08-08T09:05:26.483Z,13.10
2018-08-08T09:07:56.305Z,11.97
2018-08-08T09:10:26.107Z,12.67
2018-08-08T09:12:55.524Z,11.60
2018-08-08T09:15:24.863Z,12.07
2018-08-08T09:17:55.383Z,13.03
2018-08-08T09:20:24.992Z,14.20
2018-08-08T09:22:54.524Z,13.77
2018-08-08T09:25:24.964Z,12.50
2018-08-08T09:27:54.578Z,12.50
2018-08-08T09:30:24.149Z,11.23
2018-08-08T09:32:57.777Z,11.73
2018-08-08T09:35:27.616Z,11.47
2018-08-08T09:37:57.456Z,11.73
2018-08-08T09:40:27.123Z,10.57
2018-08-08T09:42:56.791Z,12.07
2018-08-08T09:45:26.505Z,11.40
2018-08-08T09:47:55.897Z,11.03
